createdAt,value
2024-01-22T00:12:42.940Z,576.00
2024-01-22T00:27:43.356Z,569.00
2024-01-22T00:42:43.847Z,581.00
2024-01-22T00:57:44.292Z,574.00
2024-01-22T01:12:44.621Z,580.00
2024-01-22T01:27:45.378Z,566.00
2024-01-22T01:42:45.766Z,574.00
2024-01-22T01:57:50.877Z,569.00
2024-01-22T02:12:47.915Z,577.00
2024-01-22T02:27:47.106Z,573.00
2024-01-22T02:42:47.868Z,615.00
2024-01-22T02:57:48.477Z,586.00
2024-01-22T03:12:50.193Z,591.00
2024-01-22T03:27:49.638Z,583.00
2024-01-22T03:42:50.444Z,574.00
2024-01-22T03:57:51.251Z,570.00
2024-01-22T04:12:51.856Z,566.00
2024-01-22T04:27:52.165Z,583.00
2024-01-22T04:42:52.499Z,559.00
2024-01-22T04:57:53.235Z,550.00
2024-01-22T05:12:54.164Z,547.00
2024-01-22T05:27:54.454Z,529.00
2024-01-22T05:42:55.325Z,529.00
2024-01-22T05:57:55.587Z,531.00
2024-01-22T06:12:58.685Z,559.00
2024-01-22T06:27:57.495Z,570.00
2024-01-22T06:42:58.248Z,553.00
2024-01-22T06:57:58.975Z,560.00
2024-01-22T07:12:59.614Z,568.00
2024-01-22T07:28:00.326Z,549.00
2024-01-22T07:43:01.041Z,587.00
2024-01-22T07:58:01.802Z,579.00
2024-01-22T08:13:02.409Z,570.00
2024-01-22T08:28:03.374Z,586.00
2024-01-22T08:43:03.784Z,586.00
2024-01-22T08:58:04.220Z,598.00
2024-01-22T09:13:04.800Z,582.00
2024-01-22T09:28:05.419Z,590.00
2024-01-22T09:43:06.003Z,579.00
2024-01-22T09:58:06.746Z,570.00
2024-01-22T10:13:07.265Z,557.00
2024-01-22T10:28:07.923Z,544.00
2024-01-22T10:43:08.431Z,565.00
2024-01-22T10:58:09.162Z,556.00
2024-01-22T11:13:09.629Z,569.00
2024-01-22T11:28:10.333Z,561.00
2024-01-22T11:43:10.556Z,574.00
2024-01-22T11:58:11.342Z,572.00
2024-01-22T12:13:11.676Z,573.00
2024-01-22T12:28:12.940Z,567.00
2024-01-22T12:43:12.877Z,563.00
2024-01-22T12:58:13.602Z,539.00
2024-01-22T13:13:14.018Z,527.00
2024-01-22T13:28:14.607Z,536.00
2024-01-22T13:43:15.004Z,534.00
2024-01-22T13:58:15.351Z,522.00
2024-01-22T14:13:15.867Z,526.00
2024-01-22T14:28:16.167Z,526.00
2024-01-22T14:43:16.554Z,526.00
2024-01-22T14:58:17.630Z,516.00
2024-01-22T15:13:18.275Z,531.00
2024-01-22T15:28:19.111Z,521.00
2024-01-22T15:43:19.559Z,526.00
2024-01-22T15:58:19.981Z,517.00
2024-01-22T16:13:20.635Z,520.00
2024-01-22T16:28:21.220Z,516.00
2024-01-22T16:43:21.666Z,507.00
2024-01-22T16:58:22.120Z,508.00
2024-01-22T17:13:22.590Z,506.00
2024-01-22T17:28:22.991Z,519.00
2024-01-22T17:43:23.487Z,515.00
2024-01-22T17:58:24.032Z,510.00
2024-01-22T18:13:24.715Z,517.00
2024-01-22T18:28:25.456Z,514.00
2024-01-22T18:43:26.267Z,508.00
2024-01-22T18:58:26.739Z,507.00
2024-01-22T19:13:27.512Z,512.00
2024-01-22T19:28:28.209Z,506.00
2024-01-22T19:43:28.987Z,507.00
2024-01-22T19:58:29.843Z,506.00
2024-01-22T20:13:30.075Z,515.00
2024-01-22T20:28:30.932Z,512.00
2024-01-22T20:43:31.682Z,507.00
2024-01-22T20:58:32.546Z,504.00
2024-01-22T21:13:32.976Z,508.00
2024-01-22T21:28:33.202Z,513.00
2024-01-22T21:43:34.020Z,505.00
2024-01-22T21:58:34.828Z,507.00
2024-01-22T22:13:35.221Z,507.00
2024-01-22T22:28:36.170Z,508.00
2024-01-22T22:43:36.394Z,515.00
2024-01-22T22:58:37.235Z,512.00
2024-01-22T23:13:38.045Z,516.00
2024-01-22T23:28:38.844Z,517.00
2024-01-22T23:43:39.687Z,510.00
2024-01-22T23:58:40.082Z,510.00
